sensor_id;sensor_type;location;lat;lon;timestamp;temperature;humidity
7784;DHT22;19359;51.402;6.778;2023-04-03T00:02:49;0.80;99.90
7784;DHT22;19359;51.402;6.778;2023-04-03T00:05:16;0.90;99.90
7784;DHT22;19359;51.402;6.778;2023-04-03T00:07:43;0.90;99.90
7784;DHT22;19359;51.402;6.778;2023-04-03T00:10:10;1.10;99.90
7784;DHT22;19359;51.402;6.778;2023-04-03T00:12:39;0.80;95.30
7784;DHT22;19359;51.402;6.778;2023-04-03T00:15:06;0.90;99.90
7784;DHT22;19359;51.402;6.778;2023-04-03T00:24:55;0.90;99.90
7784;DHT22;19359;51.402;6.778;2023-04-03T00:29:51;0.50;99.90
7784;DHT22;19359;51.402;6.778;2023-04-03T00:32:17;0.60;99.90
7784;DHT22;19359;51.402;6.778;2023-04-03T00:47:39;0.70;99.90
7784;DHT22;19359;51.402;6.778;2023-04-03T00:50:07;0.60;99.90
7784;DHT22;19359;51.402;6.778;2023-04-03T00:52:35;0.50;99.90
7784;DHT22;19359;51.402;6.778;2023-04-03T00:55:05;0.50;99.50
7784;DHT22;19359;51.402;6.778;2023-04-03T01:00:05;0.30;99.90
7784;DHT22;19359;51.402;6.778;2023-04-03T01:02:34;0.50;99.90
7784;DHT22;19359;51.402;6.778;2023-04-03T01:05:03;0.40;99.90
7784;DHT22;19359;51.402;6.778;2023-04-03T01:07:31;0.50;99.90
7784;DHT22;19359;51.402;6.778;2023-04-03T01:10:03;0.40;99.90
7784;DHT22;19359;51.402;6.778;2023-04-03T01:12:33;0.40;99.90
7784;DHT22;19359;51.402;6.778;2023-04-03T01:15:02;0.40;99.90
7784;DHT22;19359;51.402;6.778;2023-04-03T01:17:32;0.30;99.90
7784;DHT22;19359;51.402;6.778;2023-04-03T01:22:57;0.30;99.90
7784;DHT22;19359;51.402;6.778;2023-04-03T01:25:26;0.40;99.90
7784;DHT22;19359;51.402;6.778;2023-04-03T01:27:53;0.00;99.90
7784;DHT22;19359;51.402;6.778;2023-04-03T01:30:21;0.10;99.90
7784;DHT22;19359;51.402;6.778;2023-04-03T01:32:51;0.30;99.90
7784;DHT22;19359;51.402;6.778;2023-04-03T01:35:18;0.20;99.90
7784;DHT22;19359;51.402;6.778;2023-04-03T01:37:45;0.30;99.90
7784;DHT22;19359;51.402;6.778;2023-04-03T01:40:12;0.40;99.90
7784;DHT22;19359;51.402;6.778;2023-04-03T01:42:38;0.10;99.90
7784;DHT22;19359;51.402;6.778;2023-04-03T01:45:06;0.20;99.90
7784;DHT22;19359;51.402;6.778;2023-04-03T01:47:33;0.10;99.90
7784;DHT22;19359;51.402;6.778;2023-04-03T01:50:01;0.10;99.90
7784;DHT22;19359;51.402;6.778;2023-04-03T01:52:27;0.10;99.90
7784;DHT22;19359;51.402;6.778;2023-04-03T01:54:55;0.10;99.90
7784;DHT22;19359;51.402;6.778;2023-04-03T01:57:22;-0.40;99.90
7784;DHT22;19359;51.402;6.778;2023-04-03T02:02:16;0.00;99.90
7784;DHT22;19359;51.402;6.778;2023-04-03T02:04:44;0.10;99.90
7784;DHT22;19359;51.402;6.778;2023-04-03T02:07:12;0.00;99.90
7784;DHT22;19359;51.402;6.778;2023-04-03T02:09:39;0.00;99.90
7784;DHT22;19359;51.402;6.778;2023-04-03T02:12:06;0.10;99.90
7784;DHT22;19359;51.402;6.778;2023-04-03T02:17:00;0.00;99.90
7784;DHT22;19359;51.402;6.778;2023-04-03T02:19:30;0.10;99.90
7784;DHT22;19359;51.402;6.778;2023-04-03T02:21:57;-0.20;99.90
7784;DHT22;19359;51.402;6.778;2023-04-03T02:26:53;0.30;99.90
7784;DHT22;19359;51.402;6.778;2023-04-03T02:29:19;0.40;99.90
7784;DHT22;19359;51.402;6.778;2023-04-03T02:31:46;0.30;99.90
7784;DHT22;19359;51.402;6.778;2023-04-03T02:34:13;0.10;99.90
7784;DHT22;19359;51.402;6.778;2023-04-03T02:36:40;0.30;99.90
7784;DHT22;19359;51.402;6.778;2023-04-03T02:39:07;0.50;99.90
7784;DHT22;19359;51.402;6.778;2023-04-03T02:41:35;0.50;99.90
7784;DHT22;19359;51.402;6.778;2023-04-03T02:44:02;0.40;99.90
7784;DHT22;19359;51.402;6.778;2023-04-03T02:48:57;0.40;99.90
7784;DHT22;19359;51.402;6.778;2023-04-03T02:51:24;0.50;99.90
7784;DHT22;19359;51.402;6.778;2023-04-03T02:53:51;0.60;99.90
7784;DHT22;19359;51.402;6.778;2023-04-03T02:58:47;0.50;99.90
7784;DHT22;19359;51.402;6.778;2023-04-03T03:01:14;0.80;99.90
7784;DHT22;19359;51.402;6.778;2023-04-03T03:03:41;0.60;99.90
7784;DHT22;19359;51.402;6.778;2023-04-03T03:06:09;0.70;99.90
7784;DHT22;19359;51.402;6.778;2023-04-03T03:08:37;0.60;99.90
7784;DHT22;19359;51.402;6.778;2023-04-03T03:11:04;0.90;99.90
7784;DHT22;19359;51.402;6.778;2023-04-03T03:13:31;0.80;99.90
7784;DHT22;19359;51.402;6.778;2023-04-03T03:15:59;0.60;99.90
7784;DHT22;19359;51.402;6.778;2023-04-03T03:18:26;0.70;99.90
7784;DHT22;19359;51.402;6.778;2023-04-03T03:20:54;0.70;99.90
7784;DHT22;19359;51.402;6.778;2023-04-03T03:23:23;1.20;99.90
7784;DHT22;19359;51.402;6.778;2023-04-03T03:25:54;0.70;99.90
7784;DHT22;19359;51.402;6.778;2023-04-03T03:30:48;0.70;99.90
7784;DHT22;19359;51.402;6.778;2023-04-03T03:35:43;0.50;99.90
7784;DHT22;19359;51.402;6.778;2023-04-03T03:38:11;0.80;99.90
7784;DHT22;19359;51.402;6.778;2023-04-03T03:40:37;0.80;99.90
7784;DHT22;19359;51.402;6.778;2023-04-03T03:43:04;1.00;99.90
7784;DHT22;19359;51.402;6.778;2023-04-03T03:45:31;1.00;99.90
7784;DHT22;19359;51.402;6.778;2023-04-03T03:47:58;0.80;99.90
7784;DHT22;19359;51.402;6.778;2023-04-03T03:50:26;1.20;99.90
7784;DHT22;19359;51.402;6.778;2023-04-03T03:52:53;1.20;99.90
7784;DHT22;19359;51.402;6.778;2023-04-03T03:55:19;1.30;99.90
7784;DHT22;19359;51.402;6.778;2023-04-03T04:00:14;1.30;98.90
7784;DHT22;19359;51.402;6.778;2023-04-03T04:02:41;1.80;98.20
7784;DHT22;19359;51.402;6.778;2023-04-03T04:05:08;1.80;97.30
7784;DHT22;19359;51.402;6.778;2023-04-03T04:07:36;1.30;96.70
7784;DHT22;19359;51.402;6.778;2023-04-03T04:10:04;1.40;96.70
7784;DHT22;19359;51.402;6.778;2023-04-03T04:12:31;1.50;95.70
7784;DHT22;19359;51.402;6.778;2023-04-03T04:14:57;1.00;95.10
7784;DHT22;19359;51.402;6.778;2023-04-03T04:17:24;1.30;94.20
7784;DHT22;19359;51.402;6.778;2023-04-03T04:19:51;1.40;94.40
7784;DHT22;19359;51.402;6.778;2023-04-03T04:22:17;1.40;92.90
7784;DHT22;19359;51.402;6.778;2023-04-03T04:24:45;1.40;67.10
7784;DHT22;19359;51.402;6.778;2023-04-03T04:27:12;1.40;92.70
7784;DHT22;19359;51.402;6.778;2023-04-03T04:29:39;1.30;94.20
7784;DHT22;19359;51.402;6.778;2023-04-03T04:32:06;1.20;94.00
7784;DHT22;19359;51.402;6.778;2023-04-03T04:34:34;1.20;92.30
7784;DHT22;19359;51.402;6.778;2023-04-03T04:37:00;1.40;91.70
7784;DHT22;19359;51.402;6.778;2023-04-03T04:39:27;1.20;91.60
7784;DHT22;19359;51.402;6.778;2023-04-03T04:41:55;1.30;92.10
7784;DHT22;19359;51.402;6.778;2023-04-03T04:44:22;1.40;92.10
7784;DHT22;19359;51.402;6.778;2023-04-03T04:46:49;1.40;91.60
7784;DHT22;19359;51.402;6.778;2023-04-03T04:49:16;1.50;91.40
7784;DHT22;19359;51.402;6.778;2023-04-03T04:51:42;1.90;91.00
7784;DHT22;19359;51.402;6.778;2023-04-03T04:54:09;1.30;90.70
7784;DHT22;19359;51.402;6.778;2023-04-03T04:56:36;1.30;88.50
7784;DHT22;19359;51.402;6.778;2023-04-03T04:59:04;1.40;90.00
7784;DHT22;19359;51.402;6.778;2023-04-03T05:01:31;1.30;87.50
7784;DHT22;19359;51.402;6.778;2023-04-03T05:06:24;1.30;86.50
7784;DHT22;19359;51.402;6.778;2023-04-03T05:08:51;2.00;61.20
7784;DHT22;19359;51.402;6.778;2023-04-03T05:11:18;1.30;75.50
7784;DHT22;19359;51.402;6.778;2023-04-03T05:13:45;1.40;82.30
7784;DHT22;19359;51.402;6.778;2023-04-03T05:16:13;1.30;55.30
7784;DHT22;19359;51.402;6.778;2023-04-03T05:21:07;1.40;83.10
7784;DHT22;19359;51.402;6.778;2023-04-03T05:23:34;1.40;80.60
7784;DHT22;19359;51.402;6.778;2023-04-03T05:26:00;1.40;82.00
7784;DHT22;19359;51.402;6.778;2023-04-03T05:28:29;1.40;82.00
7784;DHT22;19359;51.402;6.778;2023-04-03T05:30:57;1.40;82.40
7784;DHT22;19359;51.402;6.778;2023-04-03T05:33:26;1.30;81.20
7784;DHT22;19359;51.402;6.778;2023-04-03T05:38:21;1.40;78.80
7784;DHT22;19359;51.402;6.778;2023-04-03T05:40:48;1.30;76.80
7784;DHT22;19359;51.402;6.778;2023-04-03T05:43:14;1.90;77.70
7784;DHT22;19359;51.402;6.778;2023-04-03T05:45:42;1.40;77.20
7784;DHT22;19359;51.402;6.778;2023-04-03T05:48:09;2.00;75.60
7784;DHT22;19359;51.402;6.778;2023-04-03T05:50:37;1.50;74.40
7784;DHT22;19359;51.402;6.778;2023-04-03T05:53:07;2.20;74.00
7784;DHT22;19359;51.402;6.778;2023-04-03T05:55:36;1.60;72.90
7784;DHT22;19359;51.402;6.778;2023-04-03T05:58:03;1.50;73.00
7784;DHT22;19359;51.402;6.778;2023-04-03T06:00:30;1.60;71.80
7784;DHT22;19359;51.402;6.778;2023-04-03T06:02:57;1.60;70.90
7784;DHT22;19359;51.402;6.778;2023-04-03T06:05:23;1.60;71.70
7784;DHT22;19359;51.402;6.778;2023-04-03T06:07:51;1.60;72.20
7784;DHT22;19359;51.402;6.778;2023-04-03T06:10:19;1.60;53.80
7784;DHT22;19359;51.402;6.778;2023-04-03T06:12:45;1.70;69.10
7784;DHT22;19359;51.402;6.778;2023-04-03T06:15:14;1.70;67.50
7784;DHT22;19359;51.402;6.778;2023-04-03T06:17:42;1.90;65.70
7784;DHT22;19359;51.402;6.778;2023-04-03T06:20:10;1.80;65.30
7784;DHT22;19359;51.402;6.778;2023-04-03T06:22:37;1.90;61.20
7784;DHT22;19359;51.402;6.778;2023-04-03T06:25:06;1.90;59.90
7784;DHT22;19359;51.402;6.778;2023-04-03T06:27:34;1.90;61.20
7784;DHT22;19359;51.402;6.778;2023-04-03T06:34:55;2.30;57.80
7784;DHT22;19359;51.402;6.778;2023-04-03T06:37:23;1.90;57.60
7784;DHT22;19359;51.402;6.778;2023-04-03T06:39:51;2.00;54.00
7784;DHT22;19359;51.402;6.778;2023-04-03T06:42:20;2.10;45.50
7784;DHT22;19359;51.402;6.778;2023-04-03T06:44:46;2.10;56.00
7784;DHT22;19359;51.402;6.778;2023-04-03T06:47:15;2.40;55.70
7784;DHT22;19359;51.402;6.778;2023-04-03T06:49:43;2.00;53.00
7784;DHT22;19359;51.402;6.778;2023-04-03T06:52:10;2.20;53.30
7784;DHT22;19359;51.402;6.778;2023-04-03T06:57:05;2.30;50.30
7784;DHT22;19359;51.402;6.778;2023-04-03T06:59:34;2.00;48.30
7784;DHT22;19359;51.402;6.778;2023-04-03T07:02:01;2.60;45.20
7784;DHT22;19359;51.402;6.778;2023-04-03T07:04:28;2.50;44.50
7784;DHT22;19359;51.402;6.778;2023-04-03T07:06:55;2.40;46.70
7784;DHT22;19359;51.402;6.778;2023-04-03T07:09:22;2.70;41.60
7784;DHT22;19359;51.402;6.778;2023-04-03T07:11:48;2.60;40.20
7784;DHT22;19359;51.402;6.778;2023-04-03T07:14:15;2.40;38.60
7784;DHT22;19359;51.402;6.778;2023-04-03T07:16:43;2.50;37.90
7784;DHT22;19359;51.402;6.778;2023-04-03T07:21:37;2.80;36.10
7784;DHT22;19359;51.402;6.778;2023-04-03T07:24:04;2.80;34.30
7784;DHT22;19359;51.402;6.778;2023-04-03T07:26:31;2.80;31.50
7784;DHT22;19359;51.402;6.778;2023-04-03T07:28:57;2.90;30.90
7784;DHT22;19359;51.402;6.778;2023-04-03T07:33:53;3.10;27.90
7784;DHT22;19359;51.402;6.778;2023-04-03T07:36:22;2.70;8.60
7784;DHT22;19359;51.402;6.778;2023-04-03T07:38:48;3.10;23.80
7784;DHT22;19359;51.402;6.778;2023-04-03T07:41:17;3.20;25.50
7784;DHT22;19359;51.402;6.778;2023-04-03T07:43:45;2.90;21.90
7784;DHT22;19359;51.402;6.778;2023-04-03T07:46:12;3.20;2.10
7784;DHT22;19359;51.402;6.778;2023-04-03T07:48:39;3.20;19.00
7784;DHT22;19359;51.402;6.778;2023-04-03T07:51:07;3.40;20.10
7784;DHT22;19359;51.402;6.778;2023-04-03T07:53:35;3.40;15.40
7784;DHT22;19359;51.402;6.778;2023-04-03T07:56:02;3.50;13.70
7784;DHT22;19359;51.402;6.778;2023-04-03T07:58:29;3.40;7.50
7784;DHT22;19359;51.402;6.778;2023-04-03T08:03:24;3.70;8.00
7784;DHT22;19359;51.402;6.778;2023-04-03T08:05:51;3.70;1.00
7784;DHT22;19359;51.402;6.778;2023-04-03T08:08:22;4.00;5.30
7784;DHT22;19359;51.402;6.778;2023-04-03T08:10:50;4.10;1.00
7784;DHT22;19359;51.402;6.778;2023-04-03T08:13:18;4.20;1.00
7784;DHT22;19359;51.402;6.778;2023-04-03T08:15:45;4.20;1.00
7784;DHT22;19359;51.402;6.778;2023-04-03T08:18:13;4.30;1.00
7784;DHT22;19359;51.402;6.778;2023-04-03T08:20:41;4.20;1.00
7784;DHT22;19359;51.402;6.778;2023-04-03T08:23:08;4.30;1.00
7784;DHT22;19359;51.402;6.778;2023-04-03T08:25:39;4.50;1.00
7784;DHT22;19359;51.402;6.778;2023-04-03T08:28:06;4.60;1.00
7784;DHT22;19359;51.402;6.778;2023-04-03T08:30:34;4.80;1.00
7784;DHT22;19359;51.402;6.778;2023-04-03T08:35:28;5.10;1.00
7784;DHT22;19359;51.402;6.778;2023-04-03T08:37:56;5.10;1.00
7784;DHT22;19359;51.402;6.778;2023-04-03T08:40:24;5.70;1.00
7784;DHT22;19359;51.402;6.778;2023-04-03T08:43:04;5.30;1.00
7784;DHT22;19359;51.402;6.778;2023-04-03T08:45:42;5.40;1.00
7784;DHT22;19359;51.402;6.778;2023-04-03T08:48:14;5.40;1.00
7784;DHT22;19359;51.402;6.778;2023-04-03T08:50:44;5.50;1.00
7784;DHT22;19359;51.402;6.778;2023-04-03T08:53:15;5.60;1.00
7784;DHT22;19359;51.402;6.778;2023-04-03T08:55:44;5.50;1.00
7784;DHT22;19359;51.402;6.778;2023-04-03T08:58:15;6.00;1.00
7784;DHT22;19359;51.402;6.778;2023-04-03T09:00:45;5.90;1.00
7784;DHT22;19359;51.402;6.778;2023-04-03T09:03:15;5.90;1.00
7784;DHT22;19359;51.402;6.778;2023-04-03T09:05:46;6.00;1.00
7784;DHT22;19359;51.402;6.778;2023-04-03T09:08:21;6.00;1.00
7784;DHT22;19359;51.402;6.778;2023-04-03T09:10:49;5.80;1.00
7784;DHT22;19359;51.402;6.778;2023-04-03T09:13:26;5.70;1.00
7784;DHT22;19359;51.402;6.778;2023-04-03T09:15:56;5.90;1.00
7784;DHT22;19359;51.402;6.778;2023-04-03T09:18:26;5.90;1.00
7784;DHT22;19359;51.402;6.778;2023-04-03T09:21:01;6.00;1.00
7784;DHT22;19359;51.402;6.778;2023-04-03T09:23:34;6.20;1.00
7784;DHT22;19359;51.402;6.778;2023-04-03T09:26:09;6.10;1.00
7784;DHT22;19359;51.402;6.778;2023-04-03T09:28:40;6.40;1.00
7784;DHT22;19359;51.402;6.778;2023-04-03T09:31:16;6.60;1.00
7784;DHT22;19359;51.402;6.778;2023-04-03T09:33:45;6.70;1.00
7784;DHT22;19359;51.402;6.778;2023-04-03T09:36:12;6.90;1.00
7784;DHT22;19359;51.402;6.778;2023-04-03T09:38:39;6.70;1.00
7784;DHT22;19359;51.402;6.778;2023-04-03T09:41:15;6.70;1.00
7784;DHT22;19359;51.402;6.778;2023-04-03T09:43:52;6.70;1.00
7784;DHT22;19359;51.402;6.778;2023-04-03T09:46:25;7.00;1.00
7784;DHT22;19359;51.402;6.778;2023-04-03T09:48:56;6.80;1.00
7784;DHT22;19359;51.402;6.778;2023-04-03T09:51:26;6.90;1.00
7784;DHT22;19359;51.402;6.778;2023-04-03T09:53:54;7.10;1.00
7784;DHT22;19359;51.402;6.778;2023-04-03T09:56:23;6.60;1.00
7784;DHT22;19359;51.402;6.778;2023-04-03T09:59:08;7.10;1.00
7784;DHT22;19359;51.402;6.778;2023-04-03T10:04:10;6.80;1.00
7784;DHT22;19359;51.402;6.778;2023-04-03T10:06:39;7.20;1.00
7784;DHT22;19359;51.402;6.778;2023-04-03T10:09:18;7.20;1.00
7784;DHT22;19359;51.402;6.778;2023-04-03T10:11:59;7.10;1.00
7784;DHT22;19359;51.402;6.778;2023-04-03T10:14:28;7.10;1.00
7784;DHT22;19359;51.402;6.778;2023-04-03T10:17:01;7.40;1.00
7784;DHT22;19359;51.402;6.778;2023-04-03T10:19:36;7.40;1.00
7784;DHT22;19359;51.402;6.778;2023-04-03T10:22:15;7.30;1.00
7784;DHT22;19359;51.402;6.778;2023-04-03T10:24:49;7.40;1.00
7784;DHT22;19359;51.402;6.778;2023-04-03T10:27:26;7.40;1.00
7784;DHT22;19359;51.402;6.778;2023-04-03T10:32:45;7.40;1.00
7784;DHT22;19359;51.402;6.778;2023-04-03T10:35:20;7.50;1.00
7784;DHT22;19359;51.402;6.778;2023-04-03T10:37:59;7.50;1.00
7784;DHT22;19359;51.402;6.778;2023-04-03T10:40:33;7.40;1.00
7784;DHT22;19359;51.402;6.778;2023-04-03T10:43:06;7.10;1.00
7784;DHT22;19359;51.402;6.778;2023-04-03T10:45:49;6.80;1.00
7784;DHT22;19359;51.402;6.778;2023-04-03T10:50:58;7.40;1.00
7784;DHT22;19359;51.402;6.778;2023-04-03T10:53:32;7.90;1.00
7784;DHT22;19359;51.402;6.778;2023-04-03T10:56:08;7.60;1.00
7784;DHT22;19359;51.402;6.778;2023-04-03T10:58:39;7.60;1.00
7784;DHT22;19359;51.402;6.778;2023-04-03T11:01:11;7.50;1.00
7784;DHT22;19359;51.402;6.778;2023-04-03T11:03:43;7.40;1.00
7784;DHT22;19359;51.402;6.778;2023-04-03T11:06:12;7.40;1.00
7784;DHT22;19359;51.402;6.778;2023-04-03T11:08:44;7.30;1.00
7784;DHT22;19359;51.402;6.778;2023-04-03T11:11:16;7.80;1.00
7784;DHT22;19359;51.402;6.778;2023-04-03T11:13:48;7.60;1.00
7784;DHT22;19359;51.402;6.778;2023-04-03T11:16:22;7.50;1.00
7784;DHT22;19359;51.402;6.778;2023-04-03T11:18:52;7.60;1.00
7784;DHT22;19359;51.402;6.778;2023-04-03T11:21:24;8.20;1.00
7784;DHT22;19359;51.402;6.778;2023-04-03T11:23:53;8.10;1.00
7784;DHT22;19359;51.402;6.778;2023-04-03T11:26:29;8.20;1.00
7784;DHT22;19359;51.402;6.778;2023-04-03T11:28:59;8.00;1.00
7784;DHT22;19359;51.402;6.778;2023-04-03T11:31:38;7.90;1.00
7784;DHT22;19359;51.402;6.778;2023-04-03T11:34:16;7.90;1.00
7784;DHT22;19359;51.402;6.778;2023-04-03T11:36:48;8.10;1.00
7784;DHT22;19359;51.402;6.778;2023-04-03T11:39:21;8.00;1.00
7784;DHT22;19359;51.402;6.778;2023-04-03T11:41:49;8.00;1.00
7784;DHT22;19359;51.402;6.778;2023-04-03T11:44:32;7.80;1.00
7784;DHT22;19359;51.402;6.778;2023-04-03T11:47:02;8.10;1.00
7784;DHT22;19359;51.402;6.778;2023-04-03T11:49:50;8.20;1.00
7784;DHT22;19359;51.402;6.778;2023-04-03T11:55:42;8.30;1.00
7784;DHT22;19359;51.402;6.778;2023-04-03T11:58:13;8.60;1.00
7784;DHT22;19359;51.402;6.778;2023-04-03T12:01:08;8.70;1.00
7784;DHT22;19359;51.402;6.778;2023-04-03T12:07:00;8.60;1.00
7784;DHT22;19359;51.402;6.778;2023-04-03T12:09:33;9.20;1.00
7784;DHT22;19359;51.402;6.778;2023-04-03T12:12:01;8.70;1.00
7784;DHT22;19359;51.402;6.778;2023-04-03T12:17:21;9.10;1.00
7784;DHT22;19359;51.402;6.778;2023-04-03T12:19:50;9.40;1.00
7784;DHT22;19359;51.402;6.778;2023-04-03T12:22:19;10.00;1.00
7784;DHT22;19359;51.402;6.778;2023-04-03T12:24:49;10.30;1.00
7784;DHT22;19359;51.402;6.778;2023-04-03T12:27:23;10.50;1.00
7784;DHT22;19359;51.402;6.778;2023-04-03T12:29:54;11.00;1.00
7784;DHT22;19359;51.402;6.778;2023-04-03T12:32:43;11.70;1.00
7784;DHT22;19359;51.402;6.778;2023-04-03T12:38:17;12.00;1.00
7784;DHT22;19359;51.402;6.778;2023-04-03T12:40:50;11.80;1.00
7784;DHT22;19359;51.402;6.778;2023-04-03T12:43:35;11.80;1.00
7784;DHT22;19359;51.402;6.778;2023-04-03T12:48:37;12.40;1.00
7784;DHT22;19359;51.402;6.778;2023-04-03T12:51:05;12.70;1.00
7784;DHT22;19359;51.402;6.778;2023-04-03T12:53:35;13.10;1.00
7784;DHT22;19359;51.402;6.778;2023-04-03T12:56:19;13.80;1.00
7784;DHT22;19359;51.402;6.778;2023-04-03T12:58:47;13.60;1.00
7784;DHT22;19359;51.402;6.778;2023-04-03T13:01:16;13.20;1.00
7784;DHT22;19359;51.402;6.778;2023-04-03T13:03:45;12.30;1.00
7784;DHT22;19359;51.402;6.778;2023-04-03T13:06:17;12.50;1.00
7784;DHT22;19359;51.402;6.778;2023-04-03T13:08:57;13.30;1.00
7784;DHT22;19359;51.402;6.778;2023-04-03T13:11:25;13.40;1.00
7784;DHT22;19359;51.402;6.778;2023-04-03T13:13:58;12.90;1.00
7784;DHT22;19359;51.402;6.778;2023-04-03T13:21:21;13.80;1.00
7784;DHT22;19359;51.402;6.778;2023-04-03T13:23:51;13.30;1.00
7784;DHT22;19359;51.402;6.778;2023-04-03T13:26:21;13.90;1.00
7784;DHT22;19359;51.402;6.778;2023-04-03T13:28:48;13.30;1.00
7784;DHT22;19359;51.402;6.778;2023-04-03T13:31:23;12.80;1.00
7784;DHT22;19359;51.402;6.778;2023-04-03T13:33:57;13.50;1.00
7784;DHT22;19359;51.402;6.778;2023-04-03T13:36:27;14.60;1.00
7784;DHT22;19359;51.402;6.778;2023-04-03T13:39:02;14.80;1.00
7784;DHT22;19359;51.402;6.778;2023-04-03T13:41:33;14.00;1.00
7784;DHT22;19359;51.402;6.778;2023-04-03T13:44:23;14.80;1.00
7784;DHT22;19359;51.402;6.778;2023-04-03T13:46:54;14.00;1.00
7784;DHT22;19359;51.402;6.778;2023-04-03T13:51:50;13.70;1.00
7784;DHT22;19359;51.402;6.778;2023-04-03T13:54:20;14.80;1.00
7784;DHT22;19359;51.402;6.778;2023-04-03T13:56:53;14.80;1.00
7784;DHT22;19359;51.402;6.778;2023-04-03T13:59:24;15.10;1.00
7784;DHT22;19359;51.402;6.778;2023-04-03T14:01:54;15.30;1.00
7784;DHT22;19359;51.402;6.778;2023-04-03T14:04:23;15.80;1.00
7784;DHT22;19359;51.402;6.778;2023-04-03T14:06:51;16.40;1.00
7784;DHT22;19359;51.402;6.778;2023-04-03T14:09:19;14.80;1.00
7784;DHT22;19359;51.402;6.778;2023-04-03T14:11:47;14.80;1.00
7784;DHT22;19359;51.402;6.778;2023-04-03T14:14:18;14.70;1.00
7784;DHT22;19359;51.402;6.778;2023-04-03T14:16:47;15.10;1.00
7784;DHT22;19359;51.402;6.778;2023-04-03T14:19:20;15.40;1.00
7784;DHT22;19359;51.402;6.778;2023-04-03T14:21:47;15.00;1.00
7784;DHT22;19359;51.402;6.778;2023-04-03T14:24:14;15.30;1.00
7784;DHT22;19359;51.402;6.778;2023-04-03T14:29:10;16.00;1.00
7784;DHT22;19359;51.402;6.778;2023-04-03T14:31:38;15.70;1.00
7784;DHT22;19359;51.402;6.778;2023-04-03T14:34:05;14.90;1.00
7784;DHT22;19359;51.402;6.778;2023-04-03T14:36:33;15.00;1.00
7784;DHT22;19359;51.402;6.778;2023-04-03T14:39:00;15.30;1.00
7784;DHT22;19359;51.402;6.778;2023-04-03T14:43:55;15.90;1.00
7784;DHT22;19359;51.402;6.778;2023-04-03T14:48:50;15.80;1.00
7784;DHT22;19359;51.402;6.778;2023-04-03T14:51:17;15.30;1.00
7784;DHT22;19359;51.402;6.778;2023-04-03T14:53:45;15.70;1.00
7784;DHT22;19359;51.402;6.778;2023-04-03T14:56:13;15.70;1.00
7784;DHT22;19359;51.402;6.778;2023-04-03T14:58:40;15.20;1.00
7784;DHT22;19359;51.402;6.778;2023-04-03T15:01:09;15.20;1.00
7784;DHT22;19359;51.402;6.778;2023-04-03T15:06:05;15.80;1.00
7784;DHT22;19359;51.402;6.778;2023-04-03T15:10:59;15.80;1.00
7784;DHT22;19359;51.402;6.778;2023-04-03T15:15:54;16.20;1.00
7784;DHT22;19359;51.402;6.778;2023-04-03T15:18:22;16.00;1.00
7784;DHT22;19359;51.402;6.778;2023-04-03T15:20:51;16.70;1.00
7784;DHT22;19359;51.402;6.778;2023-04-03T15:23:20;16.70;1.00
7784;DHT22;19359;51.402;6.778;2023-04-03T15:25:53;15.20;1.00
7784;DHT22;19359;51.402;6.778;2023-04-03T15:28:23;14.40;1.00
7784;DHT22;19359;51.402;6.778;2023-04-03T15:30:51;15.40;1.00
7784;DHT22;19359;51.402;6.778;2023-04-03T15:33:18;15.40;1.00
7784;DHT22;19359;51.402;6.778;2023-04-03T15:35:45;16.20;1.00
7784;DHT22;19359;51.402;6.778;2023-04-03T15:38:11;15.00;1.00
7784;DHT22;19359;51.402;6.778;2023-04-03T15:40:40;15.80;1.00
7784;DHT22;19359;51.402;6.778;2023-04-03T15:43:08;15.70;1.00
7784;DHT22;19359;51.402;6.778;2023-04-03T15:45:35;14.90;1.00
7784;DHT22;19359;51.402;6.778;2023-04-03T15:48:03;16.30;1.00
7784;DHT22;19359;51.402;6.778;2023-04-03T15:50:31;15.90;1.00
7784;DHT22;19359;51.402;6.778;2023-04-03T15:52:58;15.20;1.00
7784;DHT22;19359;51.402;6.778;2023-04-03T15:55:28;14.70;1.00
7784;DHT22;19359;51.402;6.778;2023-04-03T15:57:57;14.70;1.00
7784;DHT22;19359;51.402;6.778;2023-04-03T16:02:55;15.70;1.00
7784;DHT22;19359;51.402;6.778;2023-04-03T16:05:24;15.30;1.00
7784;DHT22;19359;51.402;6.778;2023-04-03T16:07:51;15.70;1.00
7784;DHT22;19359;51.402;6.778;2023-04-03T16:10:19;15.90;1.00
7784;DHT22;19359;51.402;6.778;2023-04-03T16:15:14;15.20;1.00
7784;DHT22;19359;51.402;6.778;2023-04-03T16:17:41;15.70;1.00
7784;DHT22;19359;51.402;6.778;2023-04-03T16:20:10;16.00;1.00
7784;DHT22;19359;51.402;6.778;2023-04-03T16:25:07;15.60;1.00
7784;DHT22;19359;51.402;6.778;2023-04-03T16:27:34;16.20;1.00
7784;DHT22;19359;51.402;6.778;2023-04-03T16:30:01;15.70;1.00
7784;DHT22;19359;51.402;6.778;2023-04-03T16:32:30;15.80;1.00
7784;DHT22;19359;51.402;6.778;2023-04-03T16:34:58;15.50;1.00
7784;DHT22;19359;51.402;6.778;2023-04-03T16:37:25;15.00;1.00
7784;DHT22;19359;51.402;6.778;2023-04-03T16:39:52;14.30;1.00
7784;DHT22;19359;51.402;6.778;2023-04-03T16:42:18;14.00;1.00
7784;DHT22;19359;51.402;6.778;2023-04-03T16:44:45;14.00;1.00
7784;DHT22;19359;51.402;6.778;2023-04-03T16:47:12;14.30;1.00
7784;DHT22;19359;51.402;6.778;2023-04-03T16:49:40;14.30;1.00
7784;DHT22;19359;51.402;6.778;2023-04-03T16:54:34;13.70;1.00
7784;DHT22;19359;51.402;6.778;2023-04-03T16:57:01;13.50;1.00
7784;DHT22;19359;51.402;6.778;2023-04-03T16:59:27;13.10;1.00
7784;DHT22;19359;51.402;6.778;2023-04-03T17:01:54;12.10;1.00
7784;DHT22;19359;51.402;6.778;2023-04-03T17:04:21;11.90;1.00
7784;DHT22;19359;51.402;6.778;2023-04-03T17:06:49;11.20;1.00
7784;DHT22;19359;51.402;6.778;2023-04-03T17:11:46;10.90;1.00
7784;DHT22;19359;51.402;6.778;2023-04-03T17:14:13;11.10;1.00
7784;DHT22;19359;51.402;6.778;2023-04-03T17:16:40;11.10;1.00
7784;DHT22;19359;51.402;6.778;2023-04-03T17:19:07;10.70;1.00
7784;DHT22;19359;51.402;6.778;2023-04-03T17:21:34;10.30;1.00
7784;DHT22;19359;51.402;6.778;2023-04-03T17:24:04;9.50;1.00
7784;DHT22;19359;51.402;6.778;2023-04-03T17:26:34;9.10;1.00
7784;DHT22;19359;51.402;6.778;2023-04-03T17:29:02;9.10;1.00
7784;DHT22;19359;51.402;6.778;2023-04-03T17:31:28;8.90;1.00
7784;DHT22;19359;51.402;6.778;2023-04-03T17:33:55;8.70;1.00
7784;DHT22;19359;51.402;6.778;2023-04-03T17:36:22;8.50;1.00
7784;DHT22;19359;51.402;6.778;2023-04-03T17:38:49;8.20;1.00
7784;DHT22;19359;51.402;6.778;2023-04-03T17:41:17;8.10;1.00
7784;DHT22;19359;51.402;6.778;2023-04-03T17:43:44;8.00;1.00
7784;DHT22;19359;51.402;6.778;2023-04-03T17:46:11;8.00;1.00
7784;DHT22;19359;51.402;6.778;2023-04-03T17:48:39;6.40;1.00
7784;DHT22;19359;51.402;6.778;2023-04-03T17:51:07;7.80;1.00
7784;DHT22;19359;51.402;6.778;2023-04-03T17:53:34;7.70;1.00
7784;DHT22;19359;51.402;6.778;2023-04-03T17:56:05;7.70;1.00
7784;DHT22;19359;51.402;6.778;2023-04-03T17:58:33;7.70;1.00
7784;DHT22;19359;51.402;6.778;2023-04-03T18:01:07;7.80;1.00
7784;DHT22;19359;51.402;6.778;2023-04-03T18:03:34;7.70;1.00
7784;DHT22;19359;51.402;6.778;2023-04-03T18:08:30;7.60;1.00
7784;DHT22;19359;51.402;6.778;2023-04-03T18:10:57;7.30;1.00
7784;DHT22;19359;51.402;6.778;2023-04-03T18:13:24;6.90;1.00
7784;DHT22;19359;51.402;6.778;2023-04-03T18:15:52;7.30;1.00
7784;DHT22;19359;51.402;6.778;2023-04-03T18:18:19;7.20;1.00
7784;DHT22;19359;51.402;6.778;2023-04-03T18:20:45;7.10;1.00
7784;DHT22;19359;51.402;6.778;2023-04-03T18:23:12;7.00;1.00
7784;DHT22;19359;51.402;6.778;2023-04-03T18:25:39;6.90;1.00
7784;DHT22;19359;51.402;6.778;2023-04-03T18:28:06;6.90;1.00
7784;DHT22;19359;51.402;6.778;2023-04-03T18:30:34;6.90;1.00
7784;DHT22;19359;51.402;6.778;2023-04-03T18:33:02;6.80;1.00